Time;durP1;ratioP1;P1;durP2;ratioP2;P2;SDS_P1;SDS_P2;PMS_P1;PMS_P2;Temp;Humidity;BMP_temperature;BMP_pressure;BME280_temperature;BME280_humidity;BME280_pressure;Samples;Min_cycle;Max_cycle;Signal;HPM_P1;HPM_P2
2021/11/15 00:00:56;;;;;;;;;;;;;;;;;;1898888;28;7021;-64
2021/11/15 00:01:54;;;;;;;;;;;;;;;;;;1898476;28;7353;-66
2021/11/15 00:02:51;;;;;;;;;;;;;;;;;;1898511;28;8035;-64
2021/11/15 00:03:49;;;;;;;;;;;;;;;;;;1891492;28;7042;-66
2021/11/15 00:04:47;;;;;;;;;;;;;;;;;;1898441;28;7193;-63
2021/11/15 00:05:44;;;;;;;;;;;;;;;;;;1897946;28;7109;-63
2021/11/15 00:06:42;;;;;;;;;;;;;;;;;;1898880;28;7312;-64
2021/11/15 00:07:41;;;;;;;;;;;;;;;;;;1892591;28;7006;-66
2021/11/15 00:08:38;;;;;;;;;;;;;;;;;;1891135;28;7046;-66
2021/11/15 00:09:36;;;;;;;;;;;;;;;;;;1891044;28;7017;-63
2021/11/15 00:10:33;;;;;;;;;;;;;;;;;;1891111;28;7014;-65
2021/11/15 00:11:31;;;;;;;;;;;;;;;;;;1891134;28;7093;-66
2021/11/15 00:12:28;;;;;;;;;;;;;;;;;;1891384;28;7052;-65
2021/11/15 00:13:25;;;;;;;;;;;;;;;;;;1890754;28;7010;-64
2021/11/15 00:14:23;;;;;;;;;;;;;;;;;;1891627;28;7029;-63
2021/11/15 00:15:20;;;;;;;;;;;;;;;;;;1895333;28;7009;-63
2021/11/15 00:16:18;;;;;;;;;;;;;;;;;;1895940;28;7001;-65
2021/11/15 00:17:15;;;;;;;;;;;;;;;;;;1890812;28;7042;-64
2021/11/15 00:18:13;;;;;;;;;;;;;;;;;;1889287;28;7006;-64
2021/11/15 00:19:10;;;;;;;;;;;;;;;;;;1890375;28;7010;-65
2021/11/15 00:20:08;;;;;;;;;;;;;;;;;;1890651;28;7018;-66
2021/11/15 00:21:06;;;;;;;;;;;;;;;;;;1891256;28;7093;-63
2021/11/15 00:22:04;;;;;;;;;;;;;;;;;;1891159;28;7009;-66
2021/11/15 00:23:01;;;;;;;;;;;;;;;;;;1891106;28;7042;-66
2021/11/15 00:23:59;;;;;;;;;;;;;;;;;;1894444;28;7292;-63
2021/11/15 00:24:56;;;;;;;;;;;;;;;;;;1891328;28;7005;-64
2021/11/15 00:25:54;;;;;;;;;;;;;;;;;;1890947;28;7014;-66
2021/11/15 00:26:52;;;;;;;;;;;;;;;;;;1890900;28;7124;-66
2021/11/15 00:27:49;;;;;;;;;;;;;;;;;;1891733;28;7026;-64
2021/11/15 00:28:47;;;;;;;;;;;;;;;;;;1891096;28;7002;-66
2021/11/15 00:29:44;;;;;;;;;;;;;;;;;;1895683;28;7250;-66
2021/11/15 00:30:42;;;;;;;;;;;;;;;;;;1898244;28;7097;-66
2021/11/15 00:31:39;;;;;;;;;;;;;;;;;;1897997;28;8034;-65
2021/11/15 00:32:37;;;;;;;;;;;;;;;;;;1897598;28;7147;-65
2021/11/15 00:33:35;;;;;;;;;;;;;;;;;;1897719;28;7010;-66
2021/11/15 00:34:32;;;;;;;;;;;;;;;;;;1897774;28;7243;-66
2021/11/15 00:35:29;;;;;;;;;;;;;;;;;;1897597;28;7093;-66
2021/11/15 00:36:27;;;;;;;;;;;;;;;;;;1897161;28;7050;-66
2021/11/15 00:37:24;;;;;;;;;;;;;;;;;;1897721;28;8106;-65
2021/11/15 00:38:22;;;;;;;;;;;;;;;;;;1898123;28;7009;-66
2021/11/15 00:39:19;;;;;;;;;;;;;;;;;;1897481;28;7038;-66
2021/11/15 00:40:18;;;;;;;;;;;;;;;;;;1889412;28;7014;-65
2021/11/15 00:41:16;;;;;;;;;;;;;;;;;;1890093;28;7097;-65
2021/11/15 00:42:13;;;;;;;;;;;;;;;;;;1896360;28;7001;-65
2021/11/15 00:43:11;;;;;;;;;;;;;;;;;;1897635;28;7208;-66
2021/11/15 00:44:09;;;;;;;;;;;;;;;;;;1897400;28;8047;-65
2021/11/15 00:45:07;;;;;;;;;;;;;;;;;;1896404;28;7130;-65
2021/11/15 00:46:05;;;;;;;;;;;;;;;;;;1898262;28;7070;-66
2021/11/15 00:47:03;;;;;;;;;;;;;;;;;;1891370;28;8359;-65
2021/11/15 00:48:01;;;;;;;;;;;;;;;;;;1890238;28;7113;-65
2021/11/15 00:48:58;;;;;;;;;;;;;;;;;;1890749;28;7005;-66
2021/11/15 00:49:56;;;;;;;;;;;;;;;;;;1889393;28;7009;-66
2021/11/15 00:50:54;;;;;;;;;;;;;;;;;;1891053;28;7092;-66
2021/11/15 00:51:52;;;;;;;;;;;;;;;;;;1890866;28;7013;-66
2021/11/15 00:52:50;;;;;;;;;;;;;;;;;;1890801;28;7009;-65
2021/11/15 00:53:47;;;;;;;;;;;;;;;;;;1890341;28;8078;-66
2021/11/15 00:54:45;;;;;;;;;;;;;;;;;;1890582;28;7010;-66
2021/11/15 00:55:43;;;;;;;;;;;;;;;;;;1891084;28;7002;-66
2021/11/15 00:56:43;;;;;;;;;;;;;;;;;;1890983;28;7082;-63
2021/11/15 00:57:40;;;;;;;;;;;;;;;;;;1890614;28;7042;-66
2021/11/15 00:58:38;;;;;;;;;;;;;;;;;;1890811;28;7258;-66
2021/11/15 00:59:35;;;;;;;;;;;;;;;;;;1892455;28;7169;-67
2021/11/15 01:00:35;;;;;;;;;;;;;;;;;;1898212;28;7105;-64
2021/11/15 01:01:32;;;;;;;;;;;;;;;;;;1897726;28;7124;-62
2021/11/15 01:02:30;;;;;;;;;;;;;;;;;;1891222;28;7097;-63
2021/11/15 01:03:28;;;;;;;;;;;;;;;;;;1891438;28;7030;-64
2021/11/15 01:04:26;;;;;;;;;;;;;;;;;;1897419;28;7096;-64
2021/11/15 01:05:25;;;;;;;;;;;;;;;;;;1896459;28;7145;-66
2021/11/15 01:06:22;;;;;;;;;;;;;;;;;;1894230;28;7131;-66
2021/11/15 01:07:19;;;;;;;;;;;;;;;;;;1896780;28;7064;-66
2021/11/15 01:08:18;;;;;;;;;;;;;;;;;;1897401;28;7079;-65
2021/11/15 01:09:15;;;;;;;;;;;;;;;;;;1897439;28;7324;-66
2021/11/15 01:10:15;;;;;;;;;;;;;;;;;;1898157;28;7010;-65
2021/11/15 01:11:12;;;;;;;;;;;;;;;;;;1897957;28;7009;-65
2021/11/15 01:12:10;;;;;;;;;;;;;;;;;;1904550;28;7121;-63
2021/11/15 01:13:07;;;;;;;;;;;;;;;;;;1900394;28;7336;-64
2021/11/15 01:14:05;;;;;;;;;;;;;;;;;;1891261;28;7333;-65
2021/11/15 01:15:04;;;;;;;;;;;;;;;;;;1893649;28;7097;-64
2021/11/15 01:16:02;;;;;;;;;;;;;;;;;;1898366;28;8857;-64
2021/11/15 01:16:59;;;;;;;;;;;;;;;;;;1893679;28;7009;-65
2021/11/15 01:17:58;;;;;;;;;;;;;;;;;;1891061;28;7320;-65
2021/11/15 01:18:55;;;;;;;;;;;;;;;;;;1889204;28;7090;-64
2021/11/15 01:19:53;;;;;;;;;;;;;;;;;;1890187;28;7064;-64
2021/11/15 01:20:50;;;;;;;;;;;;;;;;;;1897993;28;7117;-64
2021/11/15 01:21:48;;;;;;;;;;;;;;;;;;1898006;28;7092;-64
2021/11/15 01:22:46;;;;;;;;;;;;;;;;;;1895492;28;7096;-65
2021/11/15 01:23:44;;;;;;;;;;;;;;;;;;1897603;28;7005;-65
2021/11/15 01:24:41;;;;;;;;;;;;;;;;;;1897423;28;7300;-66
2021/11/15 01:25:40;;;;;;;;;;;;;;;;;;1904664;28;7096;-65
2021/11/15 01:26:38;;;;;;;;;;;;;;;;;;1898546;28;7472;-65
2021/11/15 01:27:36;;;;;;;;;;;;;;;;;;1897985;28;7005;-63
2021/11/15 01:28:34;;;;;;;;;;;;;;;;;;1895948;28;7092;-64
2021/11/15 01:29:32;;;;;;;;;;;;;;;;;;1895762;28;7006;-65
2021/11/15 01:30:29;;;;;;;;;;;;;;;;;;1897219;28;7153;-64
2021/11/15 01:31:27;;;;;;;;;;;;;;;;;;1889542;28;7006;-63
2021/11/15 01:32:24;;;;;;;;;;;;;;;;;;1895423;28;7009;-64
2021/11/15 01:33:21;;;;;;;;;;;;;;;;;;1897414;28;7009;-63
2021/11/15 01:34:20;;;;;;;;;;;;;;;;;;1888836;28;7309;-63
2021/11/15 01:35:19;;;;;;;;;;;;;;;;;;1889851;28;7993;-64
2021/11/15 01:36:17;;;;;;;;;;;;;;;;;;1896498;28;7010;-63
2021/11/15 01:37:15;;;;;;;;;;;;;;;;;;1896698;28;7116;-63
2021/11/15 01:38:13;;;;;;;;;;;;;;;;;;1894489;28;7013;-64
2021/11/15 01:39:11;;;;;;;;;;;;;;;;;;1897419;28;8202;-64
2021/11/15 01:40:10;;;;;;;;;;;;;;;;;;1897134;28;7010;-63
2021/11/15 01:41:08;;;;;;;;;;;;;;;;;;1897158;28;8044;-63
2021/11/15 01:42:06;;;;;;;;;;;;;;;;;;1896949;28;7013;-65
2021/11/15 01:43:04;;;;;;;;;;;;;;;;;;1896959;28;7100;-62
2021/11/15 01:44:02;;;;;;;;;;;;;;;;;;1897305;28;7010;-63
2021/11/15 01:44:59;;;;;;;;;;;;;;;;;;1896667;28;7009;-64
2021/11/15 01:45:57;;;;;;;;;;;;;;;;;;1895956;28;7192;-63
2021/11/15 01:46:54;;;;;;;;;;;;;;;;;;1890217;28;7089;-63
2021/11/15 01:47:53;;;;;;;;;;;;;;;;;;1889815;28;8039;-65
2021/11/15 01:48:50;;;;;;;;;;;;;;;;;;1889666;28;8014;-63
2021/11/15 01:49:48;;;;;;;;;;;;;;;;;;1894183;28;7105;-64
2021/11/15 01:50:46;;;;;;;;;;;;;;;;;;1893723;28;7093;-64
2021/11/15 01:51:44;;;;;;;;;;;;;;;;;;1894651;28;7046;-63
2021/11/15 01:52:42;;;;;;;;;;;;;;;;;;1893305;28;7096;-63
2021/11/15 01:53:40;;;;;;;;;;;;;;;;;;1898115;28;7265;-63
2021/11/15 01:54:37;;;;;;;;;;;;;;;;;;1895981;28;7113;-64
2021/11/15 01:55:36;;;;;;;;;;;;;;;;;;1890480;28;7010;-63
2021/11/15 01:56:34;;;;;;;;;;;;;;;;;;1892760;28;7009;-63
2021/11/15 01:57:31;;;;;;;;;;;;;;;;;;1895659;28;7132;-64
2021/11/15 01:58:29;;;;;;;;;;;;;;;;;;1897633;28;7026;-65
2021/11/15 01:59:26;;;;;;;;;;;;;;;;;;1890167;28;7297;-66
2021/11/15 02:00:28;;;;;;;;;;;;;;;;;;1897780;28;8019;-66
2021/11/15 02:01:26;;;;;;;;;;;;;;;;;;1890222;28;7052;-65
2021/11/15 02:02:26;;;;;;;;;;;;;;;;;;1890109;28;7112;-66
2021/11/15 02:03:25;;;;;;;;;;;;;;;;;;1890116;28;7038;-66
2021/11/15 02:04:22;;;;;;;;;;;;;;;;;;1890142;28;7313;-66
2021/11/15 02:05:20;;;;;;;;;;;;;;;;;;1890420;28;7096;-66
2021/11/15 02:06:17;;;;;;;;;;;;;;;;;;1890113;28;7114;-66
2021/11/15 02:07:15;;;;;;;;;;;;;;;;;;1890566;28;7317;-65
2021/11/15 02:08:12;;;;;;;;;;;;;;;;;;1890745;28;7121;-66
2021/11/15 02:09:10;;;;;;;;;;;;;;;;;;1890596;28;7085;-64
2021/11/15 02:10:09;;;;;;;;;;;;;;;;;;1890175;28;7388;-65
2021/11/15 02:11:06;;;;;;;;;;;;;;;;;;1889391;28;8088;-65
2021/11/15 02:12:04;;;;;;;;;;;;;;;;;;1890275;28;7042;-65
2021/11/15 02:13:01;;;;;;;;;;;;;;;;;;1890210;28;7017;-66
2021/11/15 02:14:00;;;;;;;;;;;;;;;;;;1889168;28;7038;-66
2021/11/15 02:14:58;;;;;;;;;;;;;;;;;;1891446;28;7092;-65
2021/11/15 02:15:55;;;;;;;;;;;;;;;;;;1890531;28;7014;-66
2021/11/15 02:16:53;;;;;;;;;;;;;;;;;;1890180;28;7009;-65
2021/11/15 02:17:51;;;;;;;;;;;;;;;;;;1890635;28;7005;-66
2021/11/15 02:18:49;;;;;;;;;;;;;;;;;;1889997;28;7113;-65
2021/11/15 02:19:47;;;;;;;;;;;;;;;;;;1890323;28;7025;-64
2021/11/15 02:20:51;;;;;;;;;;;;;;;;;;1890034;28;7321;-66
2021/11/15 02:21:49;;;;;;;;;;;;;;;;;;1890878;28;8035;-66
2021/11/15 02:22:48;;;;;;;;;;;;;;;;;;1892041;28;7080;-64
2021/11/15 02:23:46;;;;;;;;;;;;;;;;;;1891507;28;7097;-65
2021/11/15 02:24:45;;;;;;;;;;;;;;;;;;1898265;28;7002;-64
2021/11/15 02:25:43;;;;;;;;;;;;;;;;;;1899052;28;7355;-64
2021/11/15 02:26:40;;;;;;;;;;;;;;;;;;1899325;28;7009;-65
2021/11/15 02:27:37;;;;;;;;;;;;;;;;;;1892244;28;7006;-65
2021/11/15 02:28:37;;;;;;;;;;;;;;;;;;1891963;28;7005;-66
2021/11/15 02:29:36;;;;;;;;;;;;;;;;;;1890701;28;7010;-65
2021/11/15 02:30:34;;;;;;;;;;;;;;;;;;1891586;28;7010;-66
2021/11/15 02:31:31;;;;;;;;;;;;;;;;;;1896359;28;8047;-66
2021/11/15 02:32:31;;;;;;;;;;;;;;;;;;1891270;28;7049;-65
2021/11/15 02:33:31;;;;;;;;;;;;;;;;;;1891437;28;8035;-66
2021/11/15 02:34:28;;;;;;;;;;;;;;;;;;1891585;28;7117;-65
2021/11/15 02:35:26;;;;;;;;;;;;;;;;;;1891321;28;7033;-65
2021/11/15 02:36:24;;;;;;;;;;;;;;;;;;1890760;28;7097;-65
2021/11/15 02:37:22;;;;;;;;;;;;;;;;;;1895413;28;7113;-65
2021/11/15 02:38:20;;;;;;;;;;;;;;;;;;1898883;28;7009;-65
2021/11/15 02:39:18;;;;;;;;;;;;;;;;;;1898160;28;7265;-65
2021/11/15 02:40:17;;;;;;;;;;;;;;;;;;1898148;28;7009;-65
2021/11/15 02:41:16;;;;;;;;;;;;;;;;;;1898209;28;7030;-66
2021/11/15 02:42:14;;;;;;;;;;;;;;;;;;1898289;28;7100;-66
2021/11/15 02:43:12;;;;;;;;;;;;;;;;;;1898784;28;7304;-64
2021/11/15 02:44:10;;;;;;;;;;;;;;;;;;1897664;28;7062;-66
2021/11/15 02:45:08;;;;;;;;;;;;;;;;;;1899174;28;7105;-66
2021/11/15 02:46:06;;;;;;;;;;;;;;;;;;1898763;28;7038;-66
2021/11/15 02:47:03;;;;;;;;;;;;;;;;;;1899567;28;8050;-65
2021/11/15 02:48:01;;;;;;;;;;;;;;;;;;1898221;28;8028;-66
2021/11/15 02:48:59;;;;;;;;;;;;;;;;;;1891882;28;7010;-65
2021/11/15 02:49:57;;;;;;;;;;;;;;;;;;1891271;28;7002;-65
2021/11/15 02:50:54;;;;;;;;;;;;;;;;;;1890240;28;7312;-66
2021/11/15 02:51:52;;;;;;;;;;;;;;;;;;1891891;28;7002;-65
2021/11/15 02:52:52;;;;;;;;;;;;;;;;;;1891846;28;7328;-66
2021/11/15 02:53:50;;;;;;;;;;;;;;;;;;1891478;28;7377;-66
2021/11/15 02:54:47;;;;;;;;;;;;;;;;;;1891134;28;7006;-65
2021/11/15 02:55:45;;;;;;;;;;;;;;;;;;1891102;28;7005;-65
2021/11/15 02:56:43;;;;;;;;;;;;;;;;;;1891500;28;7005;-65
2021/11/15 02:57:41;;;;;;;;;;;;;;;;;;1891883;28;7146;-65
2021/11/15 02:58:39;;;;;;;;;;;;;;;;;;1889989;28;7010;-66
2021/11/15 02:59:36;;;;;;;;;;;;;;;;;;1894160;28;7114;-65
2021/11/15 03:00:36;;;;;;;;;;;;;;;;;;1899182;28;8114;-65
2021/11/15 03:01:34;;;;;;;;;;;;;;;;;;1890746;28;7035;-66
2021/11/15 03:02:34;;;;;;;;;;;;;;;;;;1891317;28;7133;-66
2021/11/15 03:03:32;;;;;;;;;;;;;;;;;;1890051;28;7010;-66
2021/11/15 03:04:29;;;;;;;;;;;;;;;;;;1891606;28;7092;-65
2021/11/15 03:05:31;;;;;;;;;;;;;;;;;;1891467;28;7367;-66
2021/11/15 03:06:29;;;;;;;;;;;;;;;;;;1891477;28;7017;-65
2021/11/15 03:07:26;;;;;;;;;;;;;;;;;;1891615;28;7033;-65
2021/11/15 03:08:25;;;;;;;;;;;;;;;;;;1891574;28;7046;-66
2021/11/15 03:09:23;;;;;;;;;;;;;;;;;;1891521;28;7009;-66
2021/11/15 03:10:21;;;;;;;;;;;;;;;;;;1898845;28;7155;-66
2021/11/15 03:11:19;;;;;;;;;;;;;;;;;;1896582;28;7013;-65
2021/11/15 03:12:16;;;;;;;;;;;;;;;;;;1891659;28;7038;-66
2021/11/15 03:13:17;;;;;;;;;;;;;;;;;;1890815;28;7093;-65
2021/11/15 03:14:14;;;;;;;;;;;;;;;;;;1891634;28;7014;-64
2021/11/15 03:15:19;;;;;;;;;;;;;;;;;;1895575;28;7046;-66
2021/11/15 03:16:17;;;;;;;;;;;;;;;;;;1899018;28;7096;-65
2021/11/15 03:17:14;;;;;;;;;;;;;;;;;;1891071;28;7037;-65
2021/11/15 03:18:41;;;;;;;;;;;;;;;;;;1891641;28;8043;-65
2021/11/15 03:19:38;;;;;;;;;;;;;;;;;;1894768;28;7017;-65
2021/11/15 03:20:38;;;;;;;;;;;;;;;;;;1891536;28;7045;-66
2021/11/15 03:21:35;;;;;;;;;;;;;;;;;;1896230;28;7014;-66
2021/11/15 03:22:33;;;;;;;;;;;;;;;;;;1898520;28;7009;-66
2021/11/15 03:23:31;;;;;;;;;;;;;;;;;;1898646;28;7112;-66
2021/11/15 03:24:31;;;;;;;;;;;;;;;;;;1898896;28;7054;-65
2021/11/15 03:25:29;;;;;;;;;;;;;;;;;;1898970;28;7140;-66
2021/11/15 03:26:27;;;;;;;;;;;;;;;;;;1898976;28;7096;-66
2021/11/15 03:27:31;;;;;;;;;;;;;;;;;;1898795;28;7010;-65
2021/11/15 03:28:30;;;;;;;;;;;;;;;;;;1898570;28;7303;-65
2021/11/15 03:29:27;;;;;;;;;;;;;;;;;;1898700;28;7006;-66
2021/11/15 03:30:26;;;;;;;;;;;;;;;;;;1897944;28;7039;-64
2021/11/15 03:31:24;;;;;;;;;;;;;;;;;;1898322;28;7093;-65
2021/11/15 03:32:24;;;;;;;;;;;;;;;;;;1897908;28;7657;-65
2021/11/15 03:33:23;;;;;;;;;;;;;;;;;;1898430;28;7117;-65
2021/11/15 03:34:21;;;;;;;;;;;;;;;;;;1898302;28;7009;-65
2021/11/15 03:35:19;;;;;;;;;;;;;;;;;;1898690;28;7009;-65
2021/11/15 03:36:17;;;;;;;;;;;;;;;;;;1897840;28;7006;-65
2021/11/15 03:37:14;;;;;;;;;;;;;;;;;;1897573;28;7109;-64
2021/11/15 03:38:12;;;;;;;;;;;;;;;;;;1891420;28;7038;-65
2021/11/15 03:39:11;;;;;;;;;;;;;;;;;;1890679;28;8003;-65
2021/11/15 03:40:11;;;;;;;;;;;;;;;;;;1889208;28;8064;-66
2021/11/15 03:41:09;;;;;;;;;;;;;;;;;;1890777;28;8036;-66
2021/11/15 03:42:06;;;;;;;;;;;;;;;;;;1897768;28;7005;-66
2021/11/15 03:43:05;;;;;;;;;;;;;;;;;;1897697;28;7109;-66
2021/11/15 03:44:03;;;;;;;;;;;;;;;;;;1890880;28;7088;-65
2021/11/15 03:45:01;;;;;;;;;;;;;;;;;;1890854;28;7130;-66
2021/11/15 03:45:58;;;;;;;;;;;;;;;;;;1891108;28;7006;-65
2021/11/15 03:46:56;;;;;;;;;;;;;;;;;;1890802;28;8023;-66
2021/11/15 03:47:54;;;;;;;;;;;;;;;;;;1890773;28;7088;-66
2021/11/15 03:48:52;;;;;;;;;;;;;;;;;;1891826;28;7120;-65
2021/11/15 03:49:49;;;;;;;;;;;;;;;;;;1897172;28;7852;-65
2021/11/15 03:50:47;;;;;;;;;;;;;;;;;;1897776;28;7092;-66
2021/11/15 03:51:45;;;;;;;;;;;;;;;;;;1891227;28;7168;-64
2021/11/15 03:52:44;;;;;;;;;;;;;;;;;;1891122;28;7006;-65
2021/11/15 03:53:42;;;;;;;;;;;;;;;;;;1891040;28;7300;-65
2021/11/15 03:54:40;;;;;;;;;;;;;;;;;;1891069;28;7150;-64
2021/11/15 03:55:37;;;;;;;;;;;;;;;;;;1890948;28;7029;-66
2021/11/15 03:56:35;;;;;;;;;;;;;;;;;;1891663;28;7014;-66
2021/11/15 03:57:33;;;;;;;;;;;;;;;;;;1889958;28;7038;-65
2021/11/15 03:58:31;;;;;;;;;;;;;;;;;;1891113;28;8040;-66
2021/11/15 03:59:28;;;;;;;;;;;;;;;;;;1895325;28;7097;-64
2021/11/15 04:00:28;;;;;;;;;;;;;;;;;;1890039;28;7117;-66
2021/11/15 04:01:29;;;;;;;;;;;;;;;;;;1890980;28;7046;-66
2021/11/15 04:02:30;;;;;;;;;;;;;;;;;;1891342;28;8156;-65
2021/11/15 04:03:33;;;;;;;;;;;;;;;;;;1890761;28;7137;-66
2021/11/15 04:04:41;;;;;;;;;;;;;;;;;;1891065;28;7144;-65
2021/11/15 04:05:39;;;;;;;;;;;;;;;;;;1891415;28;7105;-65
2021/11/15 04:06:48;;;;;;;;;;;;;;;;;;1891703;28;7045;-65
2021/11/15 04:07:49;;;;;;;;;;;;;;;;;;1891126;28;7093;-65
2021/11/15 04:08:47;;;;;;;;;;;;;;;;;;1891066;28;7093;-66
2021/11/15 04:09:44;;;;;;;;;;;;;;;;;;1890823;28;7010;-64
2021/11/15 04:10:44;;;;;;;;;;;;;;;;;;1898418;28;7144;-65
2021/11/15 04:11:42;;;;;;;;;;;;;;;;;;1890837;28;7093;-65
2021/11/15 04:12:40;;;;;;;;;;;;;;;;;;1890782;28;7097;-66
2021/11/15 04:13:40;;;;;;;;;;;;;;;;;;1891125;28;7017;-66
2021/11/15 04:14:38;;;;;;;;;;;;;;;;;;1890280;28;7104;-66
2021/11/15 04:15:36;;;;;;;;;;;;;;;;;;1890216;28;7316;-64
2021/11/15 04:16:34;;;;;;;;;;;;;;;;;;1890784;28;7089;-66
2021/11/15 04:17:32;;;;;;;;;;;;;;;;;;1896622;28;7006;-66
2021/11/15 04:18:32;;;;;;;;;;;;;;;;;;1898313;28;7233;-65
2021/11/15 04:19:30;;;;;;;;;;;;;;;;;;1898281;28;7002;-65
2021/11/15 04:20:28;;;;;;;;;;;;;;;;;;1898260;28;8043;-65
2021/11/15 04:21:27;;;;;;;;;;;;;;;;;;1898061;28;7160;-66
2021/11/15 04:22:24;;;;;;;;;;;;;;;;;;1898610;28;7088;-65
2021/11/15 04:23:22;;;;;;;;;;;;;;;;;;1898614;28;7298;-64
2021/11/15 04:24:19;;;;;;;;;;;;;;;;;;1897691;28;7123;-66
2021/11/15 04:25:17;;;;;;;;;;;;;;;;;;1891689;28;7009;-66
2021/11/15 04:26:15;;;;;;;;;;;;;;;;;;1890747;28;7002;-65
2021/11/15 04:27:12;;;;;;;;;;;;;;;;;;1890789;28;7025;-66
2021/11/15 04:28:10;;;;;;;;;;;;;;;;;;1890649;28;7096;-64
2021/11/15 04:29:07;;;;;;;;;;;;;;;;;;1891318;28;7120;-66
2021/11/15 04:30:07;;;;;;;;;;;;;;;;;;1890950;28;7006;-66
2021/11/15 04:31:04;;;;;;;;;;;;;;;;;;1890480;28;7046;-65
2021/11/15 04:32:03;;;;;;;;;;;;;;;;;;1890434;28;7153;-66
2021/11/15 04:33:02;;;;;;;;;;;;;;;;;;1892379;28;7009;-66
2021/11/15 04:33:59;;;;;;;;;;;;;;;;;;1898157;28;7010;-66
2021/11/15 04:34:57;;;;;;;;;;;;;;;;;;1890626;28;7018;-66
2021/11/15 04:35:54;;;;;;;;;;;;;;;;;;1897517;28;8097;-66
2021/11/15 04:36:52;;;;;;;;;;;;;;;;;;1897898;28;7050;-64
2021/11/15 04:37:49;;;;;;;;;;;;;;;;;;1896181;28;7009;-65
2021/11/15 04:38:47;;;;;;;;;;;;;;;;;;1890221;28;7045;-66
2021/11/15 04:39:45;;;;;;;;;;;;;;;;;;1890311;28;7097;-66
2021/11/15 04:40:43;;;;;;;;;;;;;;;;;;1890156;28;8012;-65
2021/11/15 04:41:41;;;;;;;;;;;;;;;;;;1890094;28;7595;-65
2021/11/15 04:42:38;;;;;;;;;;;;;;;;;;1892002;28;7013;-64
2021/11/15 04:43:36;;;;;;;;;;;;;;;;;;1898364;28;7009;-65
2021/11/15 04:44:33;;;;;;;;;;;;;;;;;;1897129;28;7128;-65
2021/11/15 04:45:31;;;;;;;;;;;;;;;;;;1897853;28;7010;-65
2021/11/15 04:46:28;;;;;;;;;;;;;;;;;;1898018;28;7046;-66
2021/11/15 04:47:26;;;;;;;;;;;;;;;;;;1897937;28;7158;-66
2021/11/15 04:48:25;;;;;;;;;;;;;;;;;;1895803;28;7009;-66
2021/11/15 04:49:23;;;;;;;;;;;;;;;;;;1892995;28;7113;-65
2021/11/15 04:50:20;;;;;;;;;;;;;;;;;;1890680;28;7042;-65
2021/11/15 04:51:17;;;;;;;;;;;;;;;;;;1891011;28;7462;-65
2021/11/15 04:52:15;;;;;;;;;;;;;;;;;;1894697;28;7009;-66
2021/11/15 04:53:12;;;;;;;;;;;;;;;;;;1890491;28;7010;-66
2021/11/15 04:54:11;;;;;;;;;;;;;;;;;;1890654;28;8088;-65
2021/11/15 04:55:10;;;;;;;;;;;;;;;;;;1897385;28;7117;-65
2021/11/15 04:56:08;;;;;;;;;;;;;;;;;;1897913;28;7085;-65
2021/11/15 04:57:05;;;;;;;;;;;;;;;;;;1898237;28;7046;-65
2021/11/15 04:58:03;;;;;;;;;;;;;;;;;;1898887;28;7034;-66
2021/11/15 04:59:00;;;;;;;;;;;;;;;;;;1898412;28;8563;-64
2021/11/15 05:00:01;;;;;;;;;;;;;;;;;;1892357;28;7096;-66
2021/11/15 05:01:00;;;;;;;;;;;;;;;;;;1891474;28;7088;-66
2021/11/15 05:01:58;;;;;;;;;;;;;;;;;;1890613;28;7010;-66
2021/11/15 05:02:56;;;;;;;;;;;;;;;;;;1890889;28;7113;-66
2021/11/15 05:03:53;;;;;;;;;;;;;;;;;;1890640;28;7054;-66
2021/11/15 05:04:51;;;;;;;;;;;;;;;;;;1896829;28;7093;-65
2021/11/15 05:05:48;;;;;;;;;;;;;;;;;;1889145;28;7013;-66
2021/11/15 05:06:45;;;;;;;;;;;;;;;;;;1896334;28;7107;-66
2021/11/15 05:07:43;;;;;;;;;;;;;;;;;;1897294;28;7297;-66
2021/11/15 05:08:41;;;;;;;;;;;;;;;;;;1894062;28;7010;-67
2021/11/15 05:09:39;;;;;;;;;;;;;;;;;;1890058;28;7583;-65
2021/11/15 05:10:42;;;;;;;;;;;;;;;;;;1891261;28;7013;-65
2021/11/15 05:11:40;;;;;;;;;;;;;;;;;;1890688;28;7097;-65
2021/11/15 05:12:38;;;;;;;;;;;;;;;;;;1891566;28;7005;-65
2021/11/15 05:13:35;;;;;;;;;;;;;;;;;;1890757;28;7041;-65
2021/11/15 05:14:33;;;;;;;;;;;;;;;;;;1896609;28;8157;-65
2021/11/15 05:15:30;;;;;;;;;;;;;;;;;;1897939;28;7013;-66
2021/11/15 05:16:28;;;;;;;;;;;;;;;;;;1891860;28;7092;-65
2021/11/15 05:17:25;;;;;;;;;;;;;;;;;;1889890;28;7089;-65
2021/11/15 05:18:23;;;;;;;;;;;;;;;;;;1890823;28;7010;-66
2021/11/15 05:19:21;;;;;;;;;;;;;;;;;;1893499;28;7105;-65
2021/11/15 05:20:20;;;;;;;;;;;;;;;;;;1897809;28;7116;-66
2021/11/15 05:21:17;;;;;;;;;;;;;;;;;;1897887;28;7506;-64
2021/11/15 05:22:15;;;;;;;;;;;;;;;;;;1897195;28;8027;-65
2021/11/15 05:23:12;;;;;;;;;;;;;;;;;;1898239;28;7157;-66
2021/11/15 05:24:10;;;;;;;;;;;;;;;;;;1898259;28;7010;-64
2021/11/15 05:25:08;;;;;;;;;;;;;;;;;;1894357;28;7128;-65
2021/11/15 05:26:06;;;;;;;;;;;;;;;;;;1890959;28;7013;-64
2021/11/15 05:27:04;;;;;;;;;;;;;;;;;;1890138;28;7010;-65
2021/11/15 05:28:01;;;;;;;;;;;;;;;;;;1890711;28;7010;-66
2021/11/15 05:28:59;;;;;;;;;;;;;;;;;;1890939;28;7030;-66
2021/11/15 05:29:57;;;;;;;;;;;;;;;;;;1890392;28;8048;-66
2021/11/15 05:30:54;;;;;;;;;;;;;;;;;;1890297;28;7761;-65
2021/11/15 05:31:52;;;;;;;;;;;;;;;;;;1890137;28;7017;-65
2021/11/15 05:32:51;;;;;;;;;;;;;;;;;;1890339;28;7010;-66
2021/11/15 05:33:49;;;;;;;;;;;;;;;;;;1890704;28;7979;-65
2021/11/15 05:34:46;;;;;;;;;;;;;;;;;;1890581;28;7006;-66
2021/11/15 05:35:44;;;;;;;;;;;;;;;;;;1890512;28;7092;-65
2021/11/15 05:36:41;;;;;;;;;;;;;;;;;;1890647;28;7006;-65
2021/11/15 05:37:39;;;;;;;;;;;;;;;;;;1890536;28;7006;-65
2021/11/15 05:38:37;;;;;;;;;;;;;;;;;;1890261;28;7006;-65
2021/11/15 05:39:34;;;;;;;;;;;;;;;;;;1892237;28;7061;-65
2021/11/15 05:40:32;;;;;;;;;;;;;;;;;;1898095;28;7064;-65
2021/11/15 05:41:30;;;;;;;;;;;;;;;;;;1898172;28;7300;-65
2021/11/15 05:42:27;;;;;;;;;;;;;;;;;;1897914;28;8127;-65
2021/11/15 05:43:25;;;;;;;;;;;;;;;;;;1897568;28;7046;-66
2021/11/15 05:44:22;;;;;;;;;;;;;;;;;;1897698;28;7113;-65
2021/11/15 05:45:21;;;;;;;;;;;;;;;;;;1890386;28;7097;-66
2021/11/15 05:46:19;;;;;;;;;;;;;;;;;;1890772;28;8035;-65
2021/11/15 05:47:16;;;;;;;;;;;;;;;;;;1891144;28;7100;-65
2021/11/15 05:48:15;;;;;;;;;;;;;;;;;;1895209;28;7344;-66
2021/11/15 05:49:13;;;;;;;;;;;;;;;;;;1890354;28;7042;-65
2021/11/15 05:50:10;;;;;;;;;;;;;;;;;;1892239;28;7057;-65
2021/11/15 05:51:08;;;;;;;;;;;;;;;;;;1898304;28;7034;-65
2021/11/15 05:52:05;;;;;;;;;;;;;;;;;;1895778;28;7042;-66
2021/11/15 05:53:03;;;;;;;;;;;;;;;;;;1890867;28;7030;-66
2021/11/15 05:54:01;;;;;;;;;;;;;;;;;;1897818;28;7006;-66
2021/11/15 05:54:58;;;;;;;;;;;;;;;;;;1897214;28;7092;-65
2021/11/15 05:55:56;;;;;;;;;;;;;;;;;;1892011;28;7009;-65
2021/11/15 05:56:53;;;;;;;;;;;;;;;;;;1892548;28;7229;-65
2021/11/15 05:57:52;;;;;;;;;;;;;;;;;;1891027;28;7005;-66
2021/11/15 05:58:49;;;;;;;;;;;;;;;;;;1892663;28;7113;-66
2021/11/15 05:59:48;;;;;;;;;;;;;;;;;;1895975;28;7005;-66
2021/11/15 06:00:46;;;;;;;;;;;;;;;;;;1899605;28;9022;-66
2021/11/15 06:01:44;;;;;;;;;;;;;;;;;;1899661;28;7093;-65
2021/11/15 06:02:42;;;;;;;;;;;;;;;;;;1899654;28;7180;-65
2021/11/15 06:03:39;;;;;;;;;;;;;;;;;;1899652;28;7092;-65
2021/11/15 06:04:37;;;;;;;;;;;;;;;;;;1899615;28;7013;-66
2021/11/15 06:05:34;;;;;;;;;;;;;;;;;;1899477;28;7120;-65
2021/11/15 06:06:32;;;;;;;;;;;;;;;;;;1897240;28;7013;-65
2021/11/15 06:07:29;;;;;;;;;;;;;;;;;;1898963;28;8071;-65
2021/11/15 06:08:27;;;;;;;;;;;;;;;;;;1899094;28;8174;-66
2021/11/15 06:09:24;;;;;;;;;;;;;;;;;;1899624;28;7163;-66
2021/11/15 06:10:22;;;;;;;;;;;;;;;;;;1899520;28;7088;-66
2021/11/15 06:11:20;;;;;;;;;;;;;;;;;;1898541;28;7009;-66
2021/11/15 06:12:17;;;;;;;;;;;;;;;;;;1892359;28;7013;-65
2021/11/15 06:13:15;;;;;;;;;;;;;;;;;;1891518;28;7296;-64
2021/11/15 06:14:13;;;;;;;;;;;;;;;;;;1893001;28;7109;-66
2021/11/15 06:15:12;;;;;;;;;;;;;;;;;;1891864;28;7150;-65
2021/11/15 06:16:12;;;;;;;;;;;;;;;;;;1892364;28;7010;-65
2021/11/15 06:17:09;;;;;;;;;;;;;;;;;;1891997;28;7058;-66
2021/11/15 06:18:07;;;;;;;;;;;;;;;;;;1891569;28;7097;-65
2021/11/15 06:19:05;;;;;;;;;;;;;;;;;;1891902;28;7009;-64
2021/11/15 06:20:06;;;;;;;;;;;;;;;;;;1891597;28;7001;-66
2021/11/15 06:21:04;;;;;;;;;;;;;;;;;;1892000;28;7093;-66
2021/11/15 06:22:02;;;;;;;;;;;;;;;;;;1891851;28;7113;-66
2021/11/15 06:23:00;;;;;;;;;;;;;;;;;;1892778;28;8034;-67
2021/11/15 06:23:57;;;;;;;;;;;;;;;;;;1893459;28;8723;-65
2021/11/15 06:24:55;;;;;;;;;;;;;;;;;;1891987;28;7201;-66
2021/11/15 06:25:52;;;;;;;;;;;;;;;;;;1892119;28;7096;-68
2021/11/15 06:26:49;;;;;;;;;;;;;;;;;;1898810;28;7392;-65
2021/11/15 06:27:47;;;;;;;;;;;;;;;;;;1900902;28;7148;-65
2021/11/15 06:28:48;;;;;;;;;;;;;;;;;;1892791;28;7006;-65
2021/11/15 06:29:46;;;;;;;;;;;;;;;;;;1891865;28;7017;-64
2021/11/15 06:30:44;;;;;;;;;;;;;;;;;;1890608;28;7009;-65
2021/11/15 06:31:42;;;;;;;;;;;;;;;;;;1891421;28;7413;-65
2021/11/15 06:32:39;;;;;;;;;;;;;;;;;;1891497;28;7116;-64
2021/11/15 06:33:37;;;;;;;;;;;;;;;;;;1890921;28;7014;-66
2021/11/15 06:34:35;;;;;;;;;;;;;;;;;;1891477;28;7097;-67
2021/11/15 06:35:33;;;;;;;;;;;;;;;;;;1891301;28;7009;-66
2021/11/15 06:36:30;;;;;;;;;;;;;;;;;;1891145;28;7153;-66
2021/11/15 06:37:28;;;;;;;;;;;;;;;;;;1891544;28;7084;-66
2021/11/15 06:38:25;;;;;;;;;;;;;;;;;;1894521;28;7017;-66
2021/11/15 06:39:26;;;;;;;;;;;;;;;;;;1897411;28;7096;-65
2021/11/15 06:40:23;;;;;;;;;;;;;;;;;;1896315;28;7009;-65
2021/11/15 06:41:22;;;;;;;;;;;;;;;;;;1890022;28;7313;-66
2021/11/15 06:42:19;;;;;;;;;;;;;;;;;;1890838;28;7092;-66
2021/11/15 06:43:17;;;;;;;;;;;;;;;;;;1891209;28;7096;-66
2021/11/15 06:44:14;;;;;;;;;;;;;;;;;;1890423;28;7105;-65